createdAt,value
2022-10-24T00:00:43.794Z,5.68
2022-10-24T00:03:12.086Z,5.50
2022-10-24T00:05:42.732Z,5.28
2022-10-24T00:08:11.160Z,5.22
2022-10-24T00:10:42.524Z,5.50
2022-10-24T00:13:10.266Z,5.05
2022-10-24T00:15:38.327Z,5.78
2022-10-24T00:18:07.405Z,5.57
2022-10-24T00:20:37.115Z,5.53
2022-10-24T00:23:04.976Z,5.00
2022-10-24T00:25:32.722Z,5.07
2022-10-24T00:28:00.457Z,5.05
2022-10-24T00:30:28.432Z,5.03
2022-10-24T00:32:56.146Z,5.07
2022-10-24T00:35:25.241Z,4.90
2022-10-24T00:37:52.952Z,5.18
2022-10-24T00:40:21.910Z,4.72
2022-10-24T00:42:50.099Z,5.10
2022-10-24T00:45:46.349Z,5.18
2022-10-24T00:48:19.145Z,5.47
2022-10-24T00:50:50.267Z,4.78
2022-10-24T00:53:18.876Z,5.78
2022-10-24T00:55:49.507Z,5.13
2022-10-24T00:58:18.980Z,5.60
2022-10-24T01:00:46.816Z,5.88
2022-10-24T01:03:14.566Z,5.10
2022-10-24T01:06:05.652Z,6.07
2022-10-24T01:08:42.784Z,5.88
2022-10-24T01:11:24.676Z,5.47
2022-10-24T01:14:03.849Z,5.67
2022-10-24T01:16:39.009Z,5.28
2022-10-24T01:19:21.817Z,5.65
2022-10-24T01:21:56.293Z,5.10
2022-10-24T01:24:36.771Z,5.35
2022-10-24T01:27:27.238Z,5.40
2022-10-24T01:30:06.130Z,4.65
2022-10-24T01:32:40.144Z,5.10
2022-10-24T01:35:18.463Z,5.05
2022-10-24T01:37:52.359Z,5.55
2022-10-24T01:40:25.219Z,5.03
2022-10-24T01:42:55.342Z,4.68
2022-10-24T01:45:31.089Z,4.50
2022-10-24T01:48:02.851Z,4.78
2022-10-24T01:50:32.474Z,5.20
2022-10-24T01:53:00.887Z,4.32
2022-10-24T01:55:28.844Z,4.85
2022-10-24T01:57:56.551Z,4.95
2022-10-24T02:00:25.775Z,4.38
2022-10-24T02:02:56.483Z,4.88
2022-10-24T02:05:29.815Z,4.60
2022-10-24T02:08:03.476Z,4.93
2022-10-24T02:10:34.646Z,4.90
2022-10-24T02:13:08.063Z,4.60
2022-10-24T02:15:41.390Z,4.22
2022-10-24T02:18:10.686Z,5.20
2022-10-24T02:20:43.421Z,4.18
2022-10-24T02:23:18.880Z,4.45
2022-10-24T02:25:52.070Z,3.97
2022-10-24T02:28:23.234Z,4.25
2022-10-24T02:30:58.347Z,4.05
2022-10-24T02:33:27.416Z,4.38
2022-10-24T02:35:56.549Z,4.05
2022-10-24T02:38:29.340Z,3.90
2022-10-24T02:40:59.712Z,4.03
2022-10-24T02:43:28.447Z,4.07
2022-10-24T02:45:59.719Z,4.00
2022-10-24T02:48:31.054Z,3.92
2022-10-24T02:50:59.415Z,4.47
2022-10-24T02:53:28.976Z,4.20
2022-10-24T02:55:57.032Z,4.43
2022-10-24T02:58:24.748Z,4.32
2022-10-24T03:00:52.623Z,4.30
2022-10-24T03:03:22.440Z,4.38
2022-10-24T03:05:50.145Z,4.15
2022-10-24T03:08:17.870Z,4.45
2022-10-24T03:10:45.696Z,4.25
2022-10-24T03:13:13.472Z,4.25
2022-10-24T03:15:41.225Z,4.63
2022-10-24T03:18:09.022Z,4.07
2022-10-24T03:20:38.269Z,4.50
2022-10-24T03:23:06.175Z,4.30
2022-10-24T03:25:33.957Z,4.75
2022-10-24T03:28:01.693Z,4.43
2022-10-24T03:30:29.460Z,4.00
2022-10-24T03:32:57.209Z,4.20
2022-10-24T03:35:24.911Z,4.60
2022-10-24T03:37:53.957Z,4.50
2022-10-24T03:40:21.673Z,4.30
2022-10-24T03:42:49.383Z,4.57
2022-10-24T03:45:17.247Z,4.53
2022-10-24T03:47:44.983Z,4.72
2022-10-24T03:50:12.745Z,4.72
2022-10-24T03:52:40.456Z,4.20
2022-10-24T03:55:10.559Z,4.50
2022-10-24T03:57:38.318Z,3.92
2022-10-24T04:00:07.757Z,4.93
2022-10-24T04:02:37.049Z,4.90
2022-10-24T04:05:08.379Z,4.70
2022-10-24T04:07:36.165Z,4.20
2022-10-24T04:10:04.858Z,3.85
2022-10-24T04:12:34.283Z,4.00
2022-10-24T04:15:04.756Z,4.07
2022-10-24T04:17:33.981Z,3.97
2022-10-24T04:20:01.712Z,3.90
2022-10-24T04:22:29.437Z,4.20
2022-10-24T04:24:57.196Z,3.53
2022-10-24T04:27:25.015Z,2.78
2022-10-24T04:29:54.031Z,3.97
2022-10-24T04:32:21.799Z,4.15
2022-10-24T04:34:49.721Z,3.57
2022-10-24T04:37:17.431Z,3.40
2022-10-24T04:39:45.118Z,3.70
2022-10-24T04:42:12.816Z,3.35
2022-10-24T04:44:40.523Z,3.53
2022-10-24T04:47:09.642Z,4.28
2022-10-24T04:49:37.350Z,4.67
2022-10-24T04:52:05.412Z,4.10
2022-10-24T04:54:33.129Z,4.50
2022-10-24T04:57:00.856Z,5.30
2022-10-24T04:59:28.658Z,5.18
2022-10-24T05:01:56.424Z,4.57
2022-10-24T05:04:25.603Z,4.47
2022-10-24T05:06:53.460Z,4.30
2022-10-24T05:09:21.165Z,4.00
2022-10-24T05:11:48.953Z,4.20
2022-10-24T05:14:16.642Z,4.63
2022-10-24T05:16:44.587Z,4.50
2022-10-24T05:19:12.352Z,4.10
2022-10-24T05:21:41.404Z,4.27
2022-10-24T05:24:09.528Z,4.40
2022-10-24T05:26:37.247Z,4.60
2022-10-24T05:29:04.998Z,4.67
2022-10-24T05:31:34.095Z,4.20
2022-10-24T05:34:01.831Z,4.15
2022-10-24T05:36:29.560Z,4.10
2022-10-24T05:38:58.600Z,4.32
2022-10-24T05:41:26.424Z,4.70
2022-10-24T05:43:54.115Z,4.83
2022-10-24T05:46:22.141Z,3.50
2022-10-24T05:48:49.828Z,3.50
2022-10-24T05:51:17.672Z,4.00
2022-10-24T05:53:45.386Z,4.50
2022-10-24T05:56:14.439Z,4.50
2022-10-24T05:58:42.128Z,3.67
2022-10-24T06:01:09.856Z,4.70
2022-10-24T06:03:37.644Z,4.13
2022-10-24T06:06:06.382Z,4.83
2022-10-24T06:08:35.292Z,4.47
2022-10-24T06:11:03.526Z,3.97
2022-10-24T06:13:35.385Z,4.13
2022-10-24T06:16:04.182Z,4.20
2022-10-24T06:18:31.876Z,3.92
2022-10-24T06:21:01.392Z,4.00
2022-10-24T06:23:29.101Z,4.23
2022-10-24T06:25:56.883Z,4.80
2022-10-24T06:28:24.824Z,4.60
2022-10-24T06:30:55.199Z,4.97
2022-10-24T06:33:22.939Z,4.43
2022-10-24T06:35:50.653Z,4.63
2022-10-24T06:38:18.372Z,4.80
2022-10-24T06:40:46.078Z,4.78
2022-10-24T06:43:13.788Z,4.28
2022-10-24T06:45:41.499Z,4.33
2022-10-24T06:48:10.787Z,4.43
2022-10-24T06:50:40.545Z,4.38
2022-10-24T06:53:09.072Z,5.17
2022-10-24T06:55:40.020Z,4.15
2022-10-24T06:58:08.146Z,4.28
2022-10-24T07:00:36.299Z,4.15
2022-10-24T07:03:04.037Z,4.18
2022-10-24T07:05:33.051Z,4.43
2022-10-24T07:08:00.777Z,3.90
2022-10-24T07:10:28.494Z,3.72
2022-10-24T07:12:56.213Z,3.70
2022-10-24T07:15:23.916Z,3.72
2022-10-24T07:17:51.632Z,3.85
2022-10-24T07:20:19.339Z,3.78
2022-10-24T07:22:48.705Z,3.55
2022-10-24T07:25:16.857Z,3.47
2022-10-24T07:27:44.577Z,3.45
2022-10-24T07:30:18.630Z,3.70
2022-10-24T07:32:46.755Z,3.67
2022-10-24T07:35:14.712Z,3.55
2022-10-24T07:37:42.644Z,3.95
2022-10-24T07:40:13.246Z,3.08
2022-10-24T07:42:40.944Z,3.35
2022-10-24T07:45:09.920Z,3.78
2022-10-24T07:47:37.672Z,3.53
2022-10-24T07:50:06.730Z,3.50
2022-10-24T07:52:34.476Z,3.25
2022-10-24T07:55:02.193Z,3.53
2022-10-24T07:57:31.224Z,3.10
2022-10-24T07:59:58.984Z,3.15
2022-10-24T08:02:26.700Z,2.60
2022-10-24T08:04:54.435Z,2.92
2022-10-24T08:07:22.163Z,3.03
2022-10-24T08:09:51.260Z,3.28
2022-10-24T08:12:19.420Z,2.80
2022-10-24T08:14:48.692Z,3.47
2022-10-24T08:17:19.814Z,3.25
2022-10-24T08:19:47.515Z,2.97
2022-10-24T08:22:15.253Z,3.40
2022-10-24T08:24:43.707Z,3.00
2022-10-24T08:27:12.124Z,2.60
2022-10-24T08:29:40.248Z,2.80
2022-10-24T08:32:09.288Z,3.00
2022-10-24T08:34:38.391Z,2.75
2022-10-24T08:37:06.165Z,2.97
2022-10-24T08:39:33.934Z,3.00
2022-10-24T08:42:06.019Z,2.50
2022-10-24T08:44:36.723Z,3.05
2022-10-24T08:47:13.353Z,2.67
2022-10-24T08:49:50.258Z,2.90
2022-10-24T08:52:24.811Z,2.83
2022-10-24T08:54:54.816Z,2.80
2022-10-24T08:57:25.761Z,2.60
2022-10-24T08:59:55.912Z,3.00
2022-10-24T09:02:27.375Z,2.85
2022-10-24T09:04:58.152Z,2.65
2022-10-24T09:07:26.473Z,2.50
2022-10-24T09:10:04.201Z,2.58
2022-10-24T09:12:31.935Z,2.65
2022-10-24T09:15:01.282Z,3.00
2022-10-24T09:17:33.962Z,2.50
2022-10-24T09:20:07.717Z,2.70
2022-10-24T09:22:39.438Z,2.42
2022-10-24T09:25:15.726Z,2.30
2022-10-24T09:27:44.913Z,2.85
2022-10-24T09:30:17.426Z,2.50
2022-10-24T09:32:46.895Z,2.83
2022-10-24T09:35:19.974Z,2.90
2022-10-24T09:37:55.206Z,2.55
2022-10-24T09:40:24.914Z,2.70
2022-10-24T09:42:57.663Z,2.47
2022-10-24T09:45:38.313Z,3.10
2022-10-24T09:48:17.047Z,2.78
2022-10-24T09:50:46.418Z,3.13
2022-10-24T09:53:25.420Z,2.75
2022-10-24T09:55:55.844Z,2.50
2022-10-24T09:58:32.348Z,3.15
2022-10-24T10:01:03.877Z,2.28
2022-10-24T10:03:33.754Z,2.17
2022-10-24T10:06:06.177Z,2.70
2022-10-24T10:08:36.500Z,2.58
2022-10-24T10:11:07.193Z,2.50
2022-10-24T10:13:40.838Z,2.55
2022-10-24T10:16:12.694Z,2.70
2022-10-24T10:18:47.057Z,3.20
2022-10-24T10:21:16.876Z,2.40
2022-10-24T10:23:46.473Z,2.55
2022-10-24T10:26:18.899Z,2.35
2022-10-24T10:28:58.001Z,2.60
2022-10-24T10:31:29.436Z,2.65
2022-10-24T10:34:20.498Z,2.58
2022-10-24T10:37:03.982Z,2.35
2022-10-24T10:39:53.979Z,2.40
2022-10-24T10:42:30.815Z,2.67
2022-10-24T10:45:13.973Z,2.60
2022-10-24T10:47:51.499Z,2.53
2022-10-24T10:50:27.849Z,2.50
2022-10-24T10:53:00.116Z,2.45
2022-10-24T10:55:36.120Z,2.50
2022-10-24T10:58:16.763Z,2.70
2022-10-24T11:00:50.764Z,2.83
2022-10-24T11:03:34.653Z,2.30
2022-10-24T11:06:22.317Z,2.80
2022-10-24T11:09:16.914Z,2.08
2022-10-24T11:11:49.183Z,2.72
2022-10-24T11:14:29.035Z,2.60
2022-10-24T11:16:59.600Z,2.58
2022-10-24T11:19:33.162Z,2.13
2022-10-24T11:22:05.557Z,2.50
2022-10-24T11:24:39.869Z,2.40
2022-10-24T11:27:13.353Z,2.47
2022-10-24T11:29:47.483Z,2.15
2022-10-24T11:32:19.074Z,2.33
2022-10-24T11:34:52.562Z,2.85
2022-10-24T11:37:27.794Z,2.47
2022-10-24T11:40:00.330Z,2.72
2022-10-24T11:42:34.620Z,2.30
2022-10-24T11:45:07.047Z,2.53
2022-10-24T11:48:13.247Z,2.03
2022-10-24T11:50:46.474Z,2.80
2022-10-24T11:53:23.486Z,2.58
2022-10-24T11:55:56.153Z,2.67
2022-10-24T11:58:26.540Z,2.40
2022-10-24T12:01:19.974Z,2.50
2022-10-24T12:04:15.190Z,3.08
2022-10-24T12:06:59.952Z,2.47
2022-10-24T12:10:02.698Z,2.30
2022-10-24T12:12:48.002Z,2.33
2022-10-24T12:15:41.323Z,2.28
2022-10-24T12:18:12.979Z,2.90
2022-10-24T12:20:42.016Z,2.28
2022-10-24T12:23:21.417Z,2.70
2022-10-24T12:26:03.751Z,2.60
2022-10-24T12:28:31.517Z,2.40
2022-10-24T12:31:22.488Z,2.70
2022-10-24T12:34:27.401Z,2.95
2022-10-24T12:37:05.327Z,2.85
2022-10-24T12:39:35.059Z,2.63
2022-10-24T12:42:04.410Z,2.30
2022-10-24T12:44:46.556Z,2.85
2022-10-24T12:47:33.190Z,2.40
2022-10-24T12:50:39.742Z,2.85
2022-10-24T12:53:19.637Z,2.63
2022-10-24T12:59:01.368Z,2.92
2022-10-24T13:01:34.436Z,2.50
2022-10-24T13:04:38.291Z,2.90
2022-10-24T13:07:33.658Z,2.63
2022-10-24T13:10:15.338Z,2.45
2022-10-24T13:13:00.759Z,2.70
2022-10-24T13:15:42.768Z,2.85
2022-10-24T13:18:21.168Z,2.78
2022-10-24T13:20:50.651Z,2.72
2022-10-24T13:23:25.001Z,2.60
2022-10-24T13:25:56.472Z,2.72
2022-10-24T13:28:43.312Z,2.83
2022-10-24T13:31:47.508Z,2.60
2022-10-24T13:34:25.512Z,2.63
2022-10-24T13:37:01.414Z,2.40
2022-10-24T13:39:35.739Z,2.67
2022-10-24T13:42:09.432Z,2.50
2022-10-24T13:44:44.764Z,2.28
2022-10-24T13:47:20.900Z,2.30
2022-10-24T13:49:55.113Z,2.40
2022-10-24T13:52:27.428Z,2.25
2022-10-24T13:55:00.798Z,2.75
2022-10-24T13:57:33.673Z,2.50
2022-10-24T14:00:03.234Z,2.60
2022-10-24T14:02:34.718Z,3.15
2022-10-24T14:05:05.399Z,2.60
2022-10-24T14:07:34.679Z,2.47
2022-10-24T14:10:11.760Z,2.78
2022-10-24T14:12:41.004Z,2.35
2022-10-24T14:15:18.627Z,2.67
2022-10-24T14:17:55.259Z,2.42
2022-10-24T14:20:26.402Z,2.60
2022-10-24T14:22:54.557Z,2.72
2022-10-24T14:25:24.563Z,2.50
2022-10-24T14:27:53.146Z,2.67
2022-10-24T14:30:23.686Z,2.28
2022-10-24T14:33:06.549Z,2.17
2022-10-24T14:35:35.780Z,3.17
2022-10-24T14:38:07.467Z,2.78
2022-10-24T14:40:37.527Z,2.55
2022-10-24T14:43:05.872Z,2.70
2022-10-24T14:45:33.640Z,2.80
2022-10-24T14:48:02.531Z,2.60
2022-10-24T14:50:41.497Z,2.85
2022-10-24T14:53:23.730Z,2.85
2022-10-24T14:55:52.851Z,2.20
2022-10-24T14:58:26.230Z,2.63
2022-10-24T15:00:55.033Z,2.65
2022-10-24T15:03:22.743Z,2.90
2022-10-24T15:06:09.534Z,3.33
2022-10-24T15:08:38.898Z,2.63
2022-10-24T15:11:17.112Z,2.80
2022-10-24T15:13:48.206Z,2.88
2022-10-24T15:16:27.965Z,2.35
2022-10-24T15:18:58.379Z,2.70
2022-10-24T15:21:34.808Z,3.70
2022-10-24T15:24:03.304Z,2.42
2022-10-24T15:26:35.423Z,2.72
2022-10-24T15:29:09.731Z,3.00
2022-10-24T15:31:41.234Z,2.38
2022-10-24T15:34:11.682Z,2.38
2022-10-24T15:36:43.259Z,2.53
2022-10-24T15:39:15.960Z,2.10
2022-10-24T15:41:43.835Z,2.38
2022-10-24T15:44:18.133Z,2.30
2022-10-24T15:46:46.186Z,2.28
2022-10-24T15:49:14.265Z,2.22
2022-10-24T15:51:49.864Z,2.80
2022-10-24T15:54:21.632Z,2.30
2022-10-24T15:56:50.027Z,2.03
2022-10-24T15:59:18.534Z,1.77
2022-10-24T16:01:50.443Z,2.10
2022-10-24T16:04:18.833Z,1.70
2022-10-24T16:06:47.892Z,2.40
2022-10-24T16:09:16.861Z,2.00
2022-10-24T16:11:44.542Z,1.95
2022-10-24T16:14:14.709Z,1.88
2022-10-24T16:16:42.520Z,2.83
2022-10-24T16:19:10.666Z,2.28
2022-10-24T16:21:39.797Z,2.17
2022-10-24T16:24:10.505Z,2.13
2022-10-24T16:26:38.685Z,2.10
2022-10-24T16:29:07.125Z,2.20
2022-10-24T16:31:34.882Z,2.00
2022-10-24T16:34:02.752Z,2.05
2022-10-24T16:36:30.818Z,1.83
2022-10-24T16:38:58.628Z,2.20
2022-10-24T16:41:28.215Z,2.42
2022-10-24T16:43:57.005Z,2.10
2022-10-24T16:46:25.706Z,1.80
2022-10-24T16:48:53.837Z,2.00
2022-10-24T16:51:24.235Z,2.20
2022-10-24T16:53:52.129Z,2.05
2022-10-24T16:56:19.855Z,1.90
2022-10-24T16:58:48.974Z,2.03
2022-10-24T17:01:17.484Z,2.10
2022-10-24T17:03:45.859Z,2.17
2022-10-24T17:06:13.863Z,2.15
2022-10-24T17:08:41.952Z,1.63
2022-10-24T17:11:26.095Z,1.88
2022-10-24T17:14:00.449Z,1.67
2022-10-24T17:16:28.240Z,2.03
2022-10-24T17:19:12.273Z,1.75
2022-10-24T17:21:43.661Z,1.90
2022-10-24T17:24:12.716Z,2.20
2022-10-24T17:26:40.687Z,1.50
2022-10-24T17:29:13.241Z,1.80
2022-10-24T17:31:41.166Z,1.75
2022-10-24T17:34:10.522Z,1.77
2022-10-24T17:36:40.055Z,1.85
2022-10-24T17:39:13.396Z,2.30
2022-10-24T17:41:42.199Z,2.15
2022-10-24T17:44:17.652Z,1.92
2022-10-24T17:46:45.920Z,1.80
2022-10-24T17:49:20.781Z,2.30
2022-10-24T17:51:49.938Z,2.10
2022-10-24T17:54:18.688Z,1.92
2022-10-24T17:56:46.546Z,1.65
2022-10-24T17:59:15.852Z,2.35
2022-10-24T18:01:43.706Z,1.77
2022-10-24T18:04:11.543Z,2.00
2022-10-24T18:06:42.184Z,2.03
2022-10-24T18:09:11.021Z,2.40
2022-10-24T18:11:39.866Z,2.70
2022-10-24T18:14:07.822Z,1.75
2022-10-24T18:16:38.520Z,2.10
2022-10-24T18:19:07.213Z,2.22
2022-10-24T18:21:35.456Z,2.17
2022-10-24T18:24:03.206Z,1.88
2022-10-24T18:26:30.995Z,1.85
2022-10-24T18:28:59.003Z,1.90
2022-10-24T18:31:28.804Z,2.25
2022-10-24T18:34:02.495Z,2.47
2022-10-24T18:36:33.852Z,1.90
2022-10-24T18:39:01.760Z,2.20
2022-10-24T18:41:42.070Z,2.13
2022-10-24T18:44:33.351Z,1.92
2022-10-24T18:47:03.036Z,1.90
2022-10-24T18:49:34.402Z,2.05
2022-10-24T18:52:14.668Z,1.70
2022-10-24T18:54:52.165Z,2.45
2022-10-24T18:57:24.685Z,2.10
2022-10-24T18:59:52.735Z,2.10
2022-10-24T19:02:27.883Z,1.90
2022-10-24T19:05:07.622Z,2.30
2022-10-24T19:07:35.611Z,2.13
2022-10-24T19:10:03.572Z,2.13
2022-10-24T19:12:31.496Z,2.08
2022-10-24T19:15:00.141Z,2.10
2022-10-24T19:17:27.874Z,2.03
2022-10-24T19:19:58.811Z,2.10
2022-10-24T19:22:29.803Z,2.08
2022-10-24T19:24:57.979Z,2.20
2022-10-24T19:27:25.811Z,2.35
2022-10-24T19:29:53.536Z,2.50
2022-10-24T19:32:21.224Z,2.10
2022-10-24T19:34:48.940Z,2.42
2022-10-24T19:37:19.381Z,2.28
2022-10-24T19:39:47.098Z,2.67
2022-10-24T19:42:14.872Z,2.38
2022-10-24T19:44:44.481Z,2.20
2022-10-24T19:47:12.237Z,2.13
2022-10-24T19:49:39.935Z,2.38
2022-10-24T19:52:07.863Z,2.58
2022-10-24T19:54:36.986Z,2.80
2022-10-24T19:57:04.840Z,2.75
2022-10-24T19:59:33.955Z,2.35
2022-10-24T20:02:02.005Z,2.20
2022-10-24T20:04:30.276Z,2.40
2022-10-24T20:06:58.220Z,2.17
2022-10-24T20:09:25.969Z,2.60
2022-10-24T20:11:54.997Z,2.20
2022-10-24T20:14:24.542Z,2.58
2022-10-24T20:16:52.474Z,2.20
2022-10-24T20:19:20.920Z,2.38
2022-10-24T20:21:48.655Z,2.65
2022-10-24T20:24:16.395Z,2.58
2022-10-24T20:26:44.447Z,2.65
2022-10-24T20:29:15.163Z,2.50
2022-10-24T20:31:45.651Z,2.60
2022-10-24T20:34:13.463Z,2.50
2022-10-24T20:36:44.512Z,2.90
2022-10-24T20:39:13.575Z,2.78
2022-10-24T20:41:42.224Z,2.70
2022-10-24T20:44:10.452Z,2.65
2022-10-24T20:46:39.579Z,2.38
2022-10-24T20:49:07.341Z,2.67
2022-10-24T20:51:35.067Z,2.50
2022-10-24T20:54:02.930Z,2.88
2022-10-24T20:56:30.636Z,2.33
2022-10-24T20:58:58.362Z,3.13
2022-10-24T21:01:28.231Z,2.97
2022-10-24T21:03:58.977Z,2.83
2022-10-24T21:06:28.244Z,2.85
2022-10-24T21:08:57.731Z,2.75
2022-10-24T21:11:28.194Z,2.95
2022-10-24T21:13:57.511Z,2.60
2022-10-24T21:16:26.252Z,2.30
2022-10-24T21:18:54.228Z,2.72
2022-10-24T21:21:23.977Z,2.42
2022-10-24T21:23:52.671Z,3.00
2022-10-24T21:26:21.260Z,2.30
2022-10-24T21:28:49.763Z,3.17
2022-10-24T21:31:19.849Z,2.83
2022-10-24T21:33:48.180Z,2.80
2022-10-24T21:36:17.673Z,2.28
2022-10-24T21:38:49.689Z,3.17
2022-10-24T21:41:18.633Z,2.75
2022-10-24T21:43:46.429Z,3.00
2022-10-24T21:46:15.777Z,3.10
2022-10-24T21:48:44.867Z,2.92
2022-10-24T21:51:14.065Z,2.72
2022-10-24T21:53:43.659Z,2.75
2022-10-24T21:56:15.328Z,2.97
2022-10-24T21:58:47.008Z,3.33
2022-10-24T22:01:16.580Z,2.92
2022-10-24T22:03:45.247Z,2.80
2022-10-24T22:06:14.917Z,3.25
2022-10-24T22:08:43.116Z,2.95
2022-10-24T22:11:14.774Z,3.10
2022-10-24T22:13:42.549Z,3.03
2022-10-24T22:16:12.244Z,2.78
2022-10-24T22:18:40.863Z,3.10
2022-10-24T22:21:10.078Z,2.78
2022-10-24T22:23:37.997Z,3.08
2022-10-24T22:26:05.712Z,3.10
2022-10-24T22:28:34.811Z,3.40
2022-10-24T22:31:03.000Z,3.10
2022-10-24T22:33:35.134Z,3.92
2022-10-24T22:36:08.020Z,3.20
2022-10-24T22:38:36.273Z,3.58
2022-10-24T22:41:04.447Z,3.88
2022-10-24T22:43:34.091Z,3.97
2022-10-24T22:46:12.438Z,3.75
2022-10-24T22:48:43.736Z,3.47
2022-10-24T22:51:11.882Z,4.10
2022-10-24T22:53:40.096Z,3.67
2022-10-24T22:56:14.016Z,3.95
2022-10-24T22:58:45.490Z,4.22
2022-10-24T23:01:32.844Z,3.83
2022-10-24T23:04:14.160Z,3.67
2022-10-24T23:06:47.772Z,3.97
2022-10-24T23:09:15.501Z,3.55
2022-10-24T23:11:43.611Z,3.47
2022-10-24T23:14:13.300Z,3.50
2022-10-24T23:16:45.953Z,3.60
2022-10-24T23:19:20.662Z,3.65
2022-10-24T23:21:55.624Z,3.78
2022-10-24T23:24:23.796Z,4.10
2022-10-24T23:27:18.734Z,3.25
2022-10-24T23:29:48.703Z,4.03
2022-10-24T23:32:22.698Z,3.70
2022-10-24T23:34:51.636Z,3.72
2022-10-24T23:37:29.752Z,3.38
2022-10-24T23:39:57.937Z,4.07
2022-10-24T23:42:26.154Z,3.72
2022-10-24T23:44:55.996Z,3.85
2022-10-24T23:47:43.611Z,3.35
2022-10-24T23:50:17.064Z,3.67
2022-10-24T23:53:05.420Z,3.13
2022-10-24T23:55:33.662Z,3.63
2022-10-24T23:58:02.412Z,3.70
